UWGG 171700Z 29002MPS 9999 BKN033CB 11/08 Q1001 R18L/090070 NOSIG
QNH:(hPa/inHg/mmHg)1001 / 29.56 / 751
QFE:(hPa/inHg/mmHg)992 / 29.28 / 744
Temperature11
Dew Point8
Visibility> 10000
Weather
Cloud CoverBKN (3300);
Transition Height900 m./3300 ft.
Transition LevelFL50
SQUAWK